createdAt,value
2022-12-14T06:33:57.527Z,14.60
2022-12-14T06:36:47.552Z,16.03
2022-12-14T06:39:36.516Z,16.63
2022-12-14T06:42:26.756Z,18.03
2022-12-14T06:45:16.016Z,20.33
2022-12-14T06:48:05.400Z,17.33
2022-12-14T06:51:01.723Z,19.17
2022-12-14T06:53:53.142Z,17.73
2022-12-14T06:56:43.255Z,15.80
2022-12-14T06:59:32.653Z,16.90
2022-12-14T07:02:22.263Z,15.83
2022-12-14T07:05:11.544Z,15.33
2022-12-14T07:08:03.164Z,16.63
2022-12-14T07:10:55.333Z,17.33
2022-12-14T07:13:48.911Z,15.67
2022-12-14T07:16:38.510Z,14.83
2022-12-14T07:19:27.630Z,16.03
2022-12-14T07:22:16.760Z,22.90
2022-12-14T07:25:09.051Z,17.17
2022-12-14T07:27:58.364Z,19.73
2022-12-14T07:30:47.876Z,18.90
2022-12-14T07:33:38.363Z,18.00
2022-12-14T07:36:30.455Z,18.63
2022-12-14T07:39:19.725Z,15.63
2022-12-14T07:42:10.420Z,21.10
2022-12-14T07:45:01.221Z,21.07
2022-12-14T07:47:50.455Z,16.67
2022-12-14T07:50:39.972Z,16.97
2022-12-14T07:53:28.932Z,16.27
2022-12-14T07:56:20.202Z,16.70
2022-12-14T07:59:15.951Z,16.00
2022-12-14T08:02:05.170Z,19.17
2022-12-14T08:04:54.435Z,17.93
2022-12-14T08:07:44.167Z,17.37
2022-12-14T08:10:38.626Z,19.00
2022-12-14T08:13:30.687Z,20.67
2022-12-14T08:16:22.072Z,16.20
2022-12-14T08:19:12.280Z,18.27
2022-12-14T08:22:01.340Z,18.47
2022-12-14T08:24:51.228Z,17.17
2022-12-14T08:27:41.568Z,16.50
2022-12-14T08:30:30.681Z,17.53
2022-12-14T08:33:22.030Z,16.67
2022-12-14T08:36:13.186Z,16.37
2022-12-14T08:39:04.742Z,13.40
2022-12-14T08:41:54.111Z,16.13
2022-12-14T08:44:43.382Z,17.57
2022-12-14T08:47:32.899Z,15.43
2022-12-14T08:50:24.452Z,15.67
2022-12-14T08:53:13.776Z,19.10
2022-12-14T08:56:06.646Z,17.87
2022-12-14T08:58:56.046Z,22.87
2022-12-14T09:01:45.844Z,20.07
2022-12-14T09:04:36.812Z,20.37
2022-12-14T09:07:27.923Z,17.37
2022-12-14T09:10:16.745Z,18.07
2022-12-14T09:13:06.153Z,16.63
2022-12-14T09:15:59.353Z,19.50
2022-12-14T09:18:49.550Z,15.20
2022-12-14T09:21:38.870Z,14.90
2022-12-14T09:24:29.771Z,18.57
2022-12-14T09:27:18.798Z,17.43
2022-12-14T09:30:08.586Z,17.50
2022-12-14T09:32:58.752Z,17.17
2022-12-14T09:35:47.613Z,19.57
2022-12-14T09:38:39.477Z,17.63
2022-12-14T09:41:57.669Z,19.27
2022-12-14T09:44:59.263Z,19.87
2022-12-14T09:47:55.320Z,18.70
2022-12-14T09:50:47.648Z,17.50
2022-12-14T09:53:37.929Z,15.60
2022-12-14T09:56:27.520Z,18.93
2022-12-14T09:59:20.995Z,22.53
2022-12-14T10:02:31.767Z,24.03
2022-12-14T10:05:34.253Z,13.93
2022-12-14T10:08:28.648Z,15.33
2022-12-14T10:11:29.168Z,18.07
2022-12-14T10:14:26.216Z,15.27
2022-12-14T10:17:24.083Z,14.40
2022-12-14T10:20:22.215Z,18.60
2022-12-14T10:23:21.101Z,13.83
2022-12-14T10:26:18.508Z,17.17
2022-12-14T10:29:16.001Z,14.47
2022-12-14T10:32:21.731Z,12.17
2022-12-14T10:35:16.312Z,14.37
2022-12-14T10:38:07.988Z,17.77
2022-12-14T10:41:01.611Z,15.33
2022-12-14T10:43:57.321Z,17.13
2022-12-14T10:46:53.017Z,17.43
2022-12-14T10:49:50.808Z,15.90
2022-12-14T10:52:42.898Z,17.50
2022-12-14T10:55:36.082Z,20.10
2022-12-14T10:58:25.820Z,16.43
2022-12-14T11:01:16.267Z,20.00
2022-12-14T11:04:07.140Z,17.73
2022-12-14T11:06:57.455Z,18.93
2022-12-14T11:09:46.840Z,20.07
2022-12-14T11:12:35.975Z,18.17
2022-12-14T11:15:27.476Z,20.00
2022-12-14T11:18:28.790Z,18.50
2022-12-14T11:21:18.408Z,21.03
2022-12-14T11:24:22.190Z,17.80
2022-12-14T11:27:12.677Z,23.03
2022-12-14T11:30:01.699Z,14.23
2022-12-14T11:32:51.295Z,18.77
2022-12-14T11:35:40.644Z,15.87
2022-12-14T11:38:31.559Z,18.90
2022-12-14T11:41:23.360Z,17.73
2022-12-14T11:44:25.009Z,19.30
2022-12-14T11:47:15.582Z,15.60
2022-12-14T11:50:23.492Z,15.17
2022-12-14T11:53:14.869Z,14.47
2022-12-14T11:56:07.803Z,18.17
2022-12-14T11:58:57.938Z,19.23
2022-12-14T12:01:47.340Z,16.33
2022-12-14T12:04:46.928Z,14.13
2022-12-14T12:07:38.056Z,14.80
2022-12-14T12:10:35.447Z,12.97
2022-12-14T12:13:28.190Z,13.93
2022-12-14T12:16:20.713Z,14.73
2022-12-14T12:19:14.100Z,13.67
2022-12-14T12:22:04.886Z,17.90
2022-12-14T12:25:24.249Z,13.07
2022-12-14T12:28:15.940Z,17.40
2022-12-14T12:31:11.305Z,15.63
2022-12-14T12:34:04.419Z,15.10
2022-12-14T12:37:24.752Z,13.27
2022-12-14T12:40:08.897Z,13.43
2022-12-14T12:43:03.757Z,14.07
2022-12-14T12:45:57.084Z,11.00
2022-12-14T12:48:48.900Z,13.03
2022-12-14T12:51:47.039Z,16.10
2022-12-14T12:54:40.991Z,17.40
2022-12-14T12:57:35.725Z,15.13
2022-12-14T13:00:27.494Z,13.70
2022-12-14T13:03:21.147Z,15.53
2022-12-14T13:06:30.944Z,12.97
2022-12-14T13:09:36.336Z,13.20
2022-12-14T13:12:30.610Z,12.53
2022-12-14T13:15:21.624Z,14.80
2022-12-14T13:18:40.724Z,15.23
2022-12-14T13:21:32.133Z,15.00
2022-12-14T13:24:24.532Z,12.53
2022-12-14T13:27:30.621Z,14.97
2022-12-14T13:30:23.677Z,12.50
2022-12-14T13:33:25.963Z,14.43
2022-12-14T13:36:29.333Z,16.90
2022-12-14T13:39:32.549Z,16.13
2022-12-14T13:42:27.438Z,12.27
2022-12-14T13:45:18.499Z,11.43
2022-12-14T13:48:08.991Z,13.03
2022-12-14T13:51:01.968Z,11.77
2022-12-14T13:53:55.089Z,11.83
2022-12-14T13:56:45.577Z,13.57
2022-12-14T13:59:35.457Z,13.33
2022-12-14T14:02:41.996Z,9.23
2022-12-14T14:05:46.115Z,10.67
2022-12-14T14:08:41.455Z,10.40
2022-12-14T14:11:57.456Z,10.43
2022-12-14T14:14:49.839Z,14.13
2022-12-14T14:17:40.614Z,11.73
2022-12-14T14:20:37.248Z,13.90
2022-12-14T14:23:32.313Z,12.33
2022-12-14T14:26:23.816Z,13.97
2022-12-14T14:29:31.242Z,15.23
2022-12-14T14:32:33.047Z,11.70
2022-12-14T14:35:38.353Z,11.70
2022-12-14T14:38:28.971Z,10.60
2022-12-14T14:41:23.650Z,9.07
2022-12-14T14:44:20.569Z,13.00
2022-12-14T14:47:18.406Z,10.37
2022-12-14T14:50:09.931Z,10.70
2022-12-14T14:53:04.015Z,12.63
2022-12-14T14:56:00.156Z,12.03
2022-12-14T14:58:50.031Z,13.83
2022-12-14T15:01:39.997Z,12.80
2022-12-14T15:04:33.532Z,11.90
2022-12-14T15:07:28.034Z,11.27
2022-12-14T15:10:22.875Z,11.20
2022-12-14T15:13:18.777Z,13.33
2022-12-14T15:16:22.320Z,16.70
2022-12-14T15:19:24.376Z,13.80
2022-12-14T15:22:15.861Z,13.67
2022-12-14T15:25:09.348Z,13.40
2022-12-14T15:27:59.609Z,13.63
2022-12-14T15:30:49.833Z,15.30
2022-12-14T15:33:41.917Z,12.20
2022-12-14T15:36:33.131Z,12.60
2022-12-14T15:39:40.348Z,17.37
2022-12-14T15:42:31.451Z,14.13
2022-12-14T15:45:21.901Z,11.93
2022-12-14T15:48:15.491Z,11.90
2022-12-14T15:51:05.570Z,12.23
2022-12-14T15:53:55.695Z,12.23
2022-12-14T15:56:46.839Z,16.00
2022-12-14T15:59:37.948Z,13.77
2022-12-14T16:02:29.430Z,14.83
2022-12-14T16:05:21.068Z,13.37
2022-12-14T16:08:11.268Z,11.77
2022-12-14T16:11:02.690Z,14.87
2022-12-14T16:13:52.329Z,13.37
2022-12-14T16:16:43.078Z,16.20
2022-12-14T16:19:58.193Z,17.43
2022-12-14T16:22:59.278Z,17.10
2022-12-14T16:25:51.854Z,16.40
2022-12-14T16:28:41.403Z,15.47
2022-12-14T16:31:30.768Z,15.43
2022-12-14T16:34:23.872Z,14.47
2022-12-14T16:37:34.065Z,12.03
2022-12-14T16:40:25.721Z,17.73
2022-12-14T16:43:31.577Z,17.37
2022-12-14T16:46:20.678Z,14.07
2022-12-14T16:49:31.029Z,16.20
2022-12-14T16:52:24.297Z,19.83
2022-12-14T16:55:16.245Z,15.43
2022-12-14T16:58:06.687Z,18.43
2022-12-14T17:01:00.689Z,15.00
2022-12-14T17:04:00.135Z,21.60
2022-12-14T17:06:52.177Z,18.77
2022-12-14T17:09:42.050Z,21.17
2022-12-14T17:12:30.908Z,20.37
2022-12-14T17:15:20.993Z,15.33
2022-12-14T17:18:12.021Z,17.93
2022-12-14T17:21:01.036Z,17.50
2022-12-14T17:23:51.663Z,15.97
2022-12-14T17:26:40.998Z,17.17
2022-12-14T17:29:31.196Z,18.13
2022-12-14T17:55:05.786Z,20.57
2022-12-14T17:57:55.379Z,15.47
2022-12-14T18:01:03.105Z,20.57
2022-12-14T18:03:52.279Z,22.33
2022-12-14T18:06:41.235Z,19.43
2022-12-14T18:09:30.504Z,22.67
2022-12-14T18:12:23.790Z,23.57
2022-12-14T18:15:17.823Z,20.90
2022-12-14T18:18:09.617Z,22.30
2022-12-14T18:21:00.968Z,24.87
2022-12-14T18:23:51.397Z,23.80
2022-12-14T18:26:41.446Z,24.23
2022-12-14T18:29:33.056Z,24.33
2022-12-14T18:32:22.899Z,24.20
2022-12-14T18:35:17.257Z,24.87
2022-12-14T18:38:06.850Z,24.50
2022-12-14T18:40:58.918Z,22.07
2022-12-14T18:43:50.946Z,21.20
2022-12-14T18:46:42.312Z,25.30
2022-12-14T18:49:31.160Z,18.60
2022-12-14T18:52:20.895Z,20.23
2022-12-14T18:55:17.806Z,20.07
2022-12-14T18:58:07.089Z,19.50
2022-12-14T19:00:58.758Z,21.33
2022-12-14T19:03:51.077Z,19.80
2022-12-14T19:06:44.894Z,18.80
2022-12-14T19:09:35.474Z,20.83
2022-12-14T19:12:24.683Z,22.20
2022-12-14T19:15:17.227Z,18.60
2022-12-14T19:18:06.146Z,21.43
2022-12-14T19:20:57.379Z,21.30
2022-12-14T19:23:46.934Z,16.57
2022-12-14T19:26:39.045Z,16.20
2022-12-14T19:29:28.640Z,19.13
2022-12-14T19:32:18.075Z,20.30
2022-12-14T19:35:07.848Z,20.27
2022-12-14T19:37:58.296Z,14.80
2022-12-14T19:40:59.485Z,15.60
2022-12-14T19:43:48.573Z,15.90
2022-12-14T19:46:38.133Z,15.37
2022-12-14T19:49:27.701Z,15.10
2022-12-14T19:52:17.348Z,17.87
2022-12-14T19:55:08.952Z,15.07
2022-12-14T19:57:58.813Z,14.63
2022-12-14T20:00:48.394Z,18.97
2022-12-14T20:03:38.505Z,20.90
2022-12-14T20:06:28.798Z,17.63
2022-12-14T20:09:19.462Z,15.17
2022-12-14T20:12:12.214Z,18.00
2022-12-14T20:15:03.507Z,16.17
2022-12-14T20:17:52.543Z,16.47
2022-12-14T20:20:42.327Z,18.27
2022-12-14T20:23:31.877Z,18.07
2022-12-14T20:26:22.993Z,17.10
2022-12-14T20:29:14.028Z,18.27
2022-12-14T20:32:03.936Z,17.53
2022-12-14T20:34:54.113Z,14.43
2022-12-14T20:37:44.134Z,20.37
2022-12-14T20:40:39.092Z,20.57
2022-12-14T20:43:29.111Z,22.30
2022-12-14T20:46:31.727Z,26.13
2022-12-14T20:49:23.588Z,25.40
2022-12-14T20:52:13.657Z,22.60
2022-12-14T20:55:02.931Z,21.87
2022-12-14T20:57:52.223Z,23.30
2022-12-14T21:00:42.015Z,20.93
2022-12-14T21:03:33.369Z,24.97
2022-12-14T21:06:23.710Z,21.90
2022-12-14T21:09:13.126Z,24.47
2022-12-14T21:12:19.705Z,20.47
2022-12-14T21:15:09.319Z,20.23
2022-12-14T21:17:59.683Z,19.53
2022-12-14T21:20:51.112Z,20.67
2022-12-14T21:23:43.868Z,22.17
2022-12-14T21:26:33.627Z,19.23
2022-12-14T21:29:23.028Z,18.57
2022-12-14T21:32:12.697Z,19.57
2022-12-14T21:35:02.346Z,19.63
2022-12-14T21:37:53.195Z,20.07
2022-12-14T21:40:59.983Z,20.67
2022-12-14T21:43:49.908Z,19.83
2022-12-14T21:46:39.332Z,19.57
2022-12-14T21:49:28.979Z,19.60
2022-12-14T21:52:20.467Z,21.77
2022-12-14T21:55:12.729Z,21.23
2022-12-14T21:58:16.504Z,18.67
2022-12-14T22:01:09.125Z,19.27
2022-12-14T22:03:58.729Z,19.27
2022-12-14T22:06:48.326Z,16.77
2022-12-14T22:09:37.990Z,17.03
2022-12-14T22:12:28.300Z,18.70
2022-12-14T22:15:18.279Z,17.50
2022-12-14T22:18:07.188Z,19.93
2022-12-14T22:21:03.992Z,20.33
2022-12-14T22:23:53.378Z,16.67
2022-12-14T22:26:42.875Z,20.83
2022-12-14T22:29:35.095Z,16.40
2022-12-14T22:32:24.501Z,17.77
2022-12-14T22:35:13.751Z,17.43
2022-12-14T22:38:02.974Z,16.30
2022-12-14T22:40:52.463Z,17.53
2022-12-14T22:43:42.856Z,15.20
2022-12-14T22:46:34.731Z,16.93
2022-12-14T22:49:24.081Z,16.83
2022-12-14T22:52:13.800Z,14.83
2022-12-14T22:55:02.973Z,16.53
2022-12-14T22:57:52.818Z,15.33
2022-12-14T23:00:42.070Z,17.50
2022-12-14T23:03:33.095Z,15.20
2022-12-14T23:06:22.926Z,15.13
2022-12-14T23:09:29.481Z,16.33
2022-12-14T23:12:36.602Z,16.40
2022-12-14T23:15:43.480Z,14.03
2022-12-14T23:18:51.667Z,18.07
2022-12-14T23:22:01.037Z,15.10
2022-12-14T23:25:07.925Z,16.43
2022-12-14T23:28:14.188Z,17.20
2022-12-14T23:31:20.555Z,17.17
2022-12-14T23:34:28.463Z,18.47
2022-12-14T23:37:35.265Z,15.17
2022-12-14T23:40:42.061Z,18.40
2022-12-14T23:43:48.777Z,20.93
2022-12-14T23:46:55.563Z,18.13
2022-12-14T23:50:04.005Z,19.00
2022-12-14T23:53:11.071Z,18.47
